createdAt,value
2022-09-28T00:01:25.404Z,99423.84
2022-09-28T00:03:55.102Z,99420.06
2022-09-28T00:06:26.790Z,99414.63
2022-09-28T00:08:54.801Z,99406.69
2022-09-28T00:11:23.085Z,99412.56
2022-09-28T00:13:52.245Z,99420.31
2022-09-28T00:16:21.962Z,99425.88
2022-09-28T00:18:51.515Z,99414.34
2022-09-28T00:21:24.726Z,99423.44
2022-09-28T00:24:15.875Z,99411.59
2022-09-28T00:26:51.289Z,99412.66
2022-09-28T00:29:32.447Z,99411.00
2022-09-28T00:32:05.118Z,99408.25
2022-09-28T00:34:37.855Z,99404.16
2022-09-28T00:37:06.124Z,99403.31
2022-09-28T00:39:35.793Z,99403.06
2022-09-28T00:42:04.071Z,99406.13
2022-09-28T00:44:36.328Z,99411.31
2022-09-28T00:47:31.447Z,99404.47
2022-09-28T00:50:20.925Z,99404.72
2022-09-28T00:53:12.779Z,99400.06
2022-09-28T00:55:42.432Z,99389.81
2022-09-28T00:58:12.016Z,99388.16
2022-09-28T01:00:42.767Z,99384.59
2022-09-28T01:03:10.429Z,99392.81
2022-09-28T01:05:46.720Z,99398.66
2022-09-28T01:08:15.124Z,99397.81
2022-09-28T01:10:45.983Z,99395.06
2022-09-28T01:13:13.729Z,99392.81
2022-09-28T01:15:59.696Z,99398.88
2022-09-28T01:18:37.412Z,99395.38
2022-09-28T01:21:20.877Z,99398.94
2022-09-28T01:24:11.025Z,99401.97
2022-09-28T01:26:48.046Z,99403.69
2022-09-28T01:29:27.691Z,99406.19
2022-09-28T01:32:07.284Z,99399.00
2022-09-28T01:34:39.085Z,99396.25
2022-09-28T01:37:10.279Z,99395.13
2022-09-28T01:39:40.489Z,99396.25
2022-09-28T01:42:14.755Z,99389.66
2022-09-28T01:44:43.206Z,99394.59
2022-09-28T01:47:12.037Z,99397.59
2022-09-28T01:49:42.136Z,99404.78
2022-09-28T01:52:28.043Z,99400.16
2022-09-28T01:54:59.360Z,99391.28
2022-09-28T01:57:36.245Z,99392.47
2022-09-28T02:00:12.075Z,99392.19
2022-09-28T02:03:12.725Z,99397.97
2022-09-28T02:05:48.757Z,99402.91
2022-09-28T02:08:27.096Z,99409.00
2022-09-28T02:11:02.422Z,99417.25
2022-09-28T02:13:32.234Z,99415.63
2022-09-28T02:16:31.564Z,99417.31
2022-09-28T02:18:59.239Z,99425.00
2022-09-28T02:21:42.177Z,99414.84
2022-09-28T02:24:21.416Z,99427.78
2022-09-28T02:26:50.304Z,99421.69
2022-09-28T02:29:18.327Z,99420.53
2022-09-28T02:31:46.026Z,99410.84
2022-09-28T02:34:13.790Z,99420.19
2022-09-28T02:36:41.516Z,99425.63
2022-09-28T02:39:17.099Z,99426.38
2022-09-28T02:42:06.491Z,99419.47
2022-09-28T02:45:02.937Z,99425.81
2022-09-28T02:47:36.630Z,99421.41
2022-09-28T02:50:16.391Z,99427.53
2022-09-28T02:53:02.532Z,99428.09
2022-09-28T02:55:58.087Z,99428.09
2022-09-28T02:58:33.317Z,99422.59
2022-09-28T03:01:25.549Z,99426.25
2022-09-28T03:04:10.849Z,99426.38
2022-09-28T03:06:47.628Z,99426.72
2022-09-28T03:09:23.319Z,99424.34
2022-09-28T03:11:53.789Z,99422.16
2022-09-28T03:14:21.650Z,99424.28
2022-09-28T03:16:56.317Z,99423.22
2022-09-28T03:19:26.407Z,99439.81
2022-09-28T03:21:55.350Z,99433.72
2022-09-28T03:24:24.094Z,99437.78
2022-09-28T03:26:51.656Z,99439.13
2022-09-28T03:29:22.094Z,99440.09
2022-09-28T03:31:56.569Z,99450.84
2022-09-28T03:34:24.174Z,99456.84
2022-09-28T03:36:52.289Z,99456.28
2022-09-28T03:39:20.266Z,99452.06
2022-09-28T03:41:47.777Z,99453.09
2022-09-28T03:44:17.161Z,99448.88
2022-09-28T03:46:46.728Z,99444.91
2022-09-28T03:49:14.276Z,99449.50
2022-09-28T03:51:41.831Z,99442.84
2022-09-28T03:54:09.787Z,99446.69
2022-09-28T03:56:38.035Z,99451.88
2022-09-28T03:59:05.759Z,99449.63
2022-09-28T04:01:33.492Z,99449.38
2022-09-28T04:04:01.269Z,99451.75
2022-09-28T04:06:28.804Z,99450.50
2022-09-28T04:08:59.547Z,99450.56
2022-09-28T04:11:30.042Z,99447.81
2022-09-28T04:14:03.879Z,99458.53
2022-09-28T04:16:32.023Z,99449.78
2022-09-28T04:19:07.852Z,99460.88
2022-09-28T04:21:55.580Z,99456.63
2022-09-28T04:24:23.618Z,99462.41
2022-09-28T04:26:52.159Z,99456.63
2022-09-28T04:29:20.923Z,99456.97
2022-09-28T04:31:56.898Z,99459.72
2022-09-28T04:34:36.487Z,99482.38
2022-09-28T04:37:06.533Z,99494.56
2022-09-28T04:39:34.764Z,99498.97
2022-09-28T04:42:02.625Z,99500.31
2022-09-28T04:44:30.277Z,99501.47
2022-09-28T04:47:05.198Z,99503.56
2022-09-28T04:49:35.564Z,99493.63
2022-09-28T04:52:17.215Z,99485.63
2022-09-28T04:54:46.225Z,99483.44
2022-09-28T04:57:13.857Z,99479.63
2022-09-28T04:59:42.581Z,99476.16
2022-09-28T05:02:11.036Z,99477.28
2022-09-28T05:04:59.123Z,99481.13
2022-09-28T05:07:27.085Z,99478.78
2022-09-28T05:09:55.402Z,99476.16
2022-09-28T05:12:23.356Z,99476.97
2022-09-28T05:14:51.013Z,99486.19
2022-09-28T05:17:20.424Z,99482.78
2022-09-28T05:20:02.933Z,99488.38
2022-09-28T05:22:30.858Z,99501.63
2022-09-28T05:25:00.412Z,99504.53
2022-09-28T05:27:32.480Z,99506.31
2022-09-28T05:30:07.352Z,99503.47
2022-09-28T05:33:04.728Z,99500.38
2022-09-28T05:35:55.133Z,99507.16
2022-09-28T05:38:24.607Z,99501.03
2022-09-28T05:40:52.310Z,99512.16
2022-09-28T05:43:20.095Z,99516.97
2022-09-28T05:45:52.823Z,99533.47
2022-09-28T05:48:23.238Z,99522.31
2022-09-28T05:50:52.615Z,99520.44
2022-09-28T05:53:20.884Z,99513.28
2022-09-28T05:55:48.434Z,99518.44
2022-09-28T05:58:16.905Z,99513.78
2022-09-28T06:00:44.827Z,99528.47
2022-09-28T06:03:13.892Z,99529.78
2022-09-28T06:05:41.815Z,99520.03
2022-09-28T06:08:11.723Z,99514.97
2022-09-28T06:10:43.996Z,99523.88
2022-09-28T06:13:12.238Z,99525.22
2022-09-28T06:15:42.143Z,99534.88
2022-09-28T06:18:15.045Z,99536.34
2022-09-28T06:21:02.752Z,99538.25
2022-09-28T06:23:36.674Z,99529.16
2022-09-28T06:26:04.330Z,99530.00
2022-09-28T06:28:32.073Z,99540.66
2022-09-28T06:31:00.854Z,99532.53
2022-09-28T06:33:30.297Z,99522.13
2022-09-28T06:35:59.558Z,99526.47
2022-09-28T06:38:27.403Z,99533.47
2022-09-28T06:40:56.701Z,99544.66
2022-09-28T06:43:24.734Z,99545.44
2022-09-28T06:46:10.762Z,99552.09
2022-09-28T06:48:38.357Z,99548.78
2022-09-28T06:51:08.529Z,99552.38
2022-09-28T06:53:55.565Z,99552.03
2022-09-28T06:56:43.558Z,99540.22
2022-09-28T06:59:11.189Z,99554.88
2022-09-28T07:01:40.036Z,99564.13
2022-09-28T07:04:20.435Z,99571.03
2022-09-28T07:07:09.779Z,99562.56
2022-09-28T07:10:11.868Z,99550.94
2022-09-28T07:13:04.940Z,99553.56
2022-09-28T07:15:43.476Z,99563.84
2022-09-28T07:18:14.146Z,99561.16
2022-09-28T07:20:52.795Z,99558.56
2022-09-28T07:23:21.840Z,99561.31
2022-09-28T07:26:12.231Z,99560.03
2022-09-28T07:29:06.239Z,99562.31
2022-09-28T07:32:05.885Z,99566.09
2022-09-28T07:37:33.688Z,99570.19
2022-09-28T07:40:20.425Z,99576.19
2022-09-28T07:42:49.365Z,99579.19
2022-09-28T07:45:17.585Z,99575.94
2022-09-28T07:47:46.236Z,99581.59
2022-09-28T07:50:28.568Z,99565.81
2022-09-28T07:53:01.239Z,99564.31
2022-09-28T07:55:32.356Z,99565.19
2022-09-28T07:58:22.815Z,99579.16
2022-09-28T08:01:12.005Z,99577.69
2022-09-28T08:03:40.286Z,99580.53
2022-09-28T08:06:09.991Z,99576.22
2022-09-28T08:08:43.944Z,99572.66
2022-09-28T08:11:15.988Z,99573.31
2022-09-28T08:14:03.525Z,99575.53
2022-09-28T08:17:04.517Z,99586.47
2022-09-28T08:19:58.297Z,99584.25
2022-09-28T08:22:26.060Z,99583.06
2022-09-28T08:24:56.494Z,99581.84
2022-09-28T08:27:24.138Z,99588.56
2022-09-28T08:29:51.790Z,99587.22
2022-09-28T08:32:48.880Z,99582.00
2022-09-28T08:35:34.996Z,99576.25
2022-09-28T08:38:16.710Z,99572.81
2022-09-28T08:41:19.393Z,99583.88
2022-09-28T08:44:24.181Z,99587.91
2022-09-28T08:47:02.480Z,99585.66
2022-09-28T08:49:47.394Z,99591.28
2022-09-28T08:52:40.745Z,99589.19
2022-09-28T08:55:37.992Z,99582.91
2022-09-28T08:58:20.100Z,99595.44
2022-09-28T09:00:49.636Z,99600.84
2022-09-28T09:03:23.959Z,99591.28
2022-09-28T09:06:29.960Z,99595.16
2022-09-28T09:09:10.341Z,99588.75
2022-09-28T09:12:04.884Z,99597.25
2022-09-28T09:14:43.708Z,99588.31
2022-09-28T09:17:21.449Z,99585.41
2022-09-28T09:20:20.553Z,99584.16
2022-09-28T09:22:59.118Z,99592.97
2022-09-28T09:25:45.318Z,99588.91
2022-09-28T09:28:48.157Z,99590.56
2022-09-28T09:31:31.998Z,99583.66
2022-09-28T09:34:15.519Z,99586.91
2022-09-28T09:37:03.024Z,99587.09
2022-09-28T09:39:58.102Z,99581.31
2022-09-28T09:42:53.259Z,99570.88
2022-09-28T09:46:00.299Z,99570.06
2022-09-28T09:48:50.573Z,99565.94
2022-09-28T09:51:32.275Z,99570.34
2022-09-28T09:54:02.384Z,99564.59
2022-09-28T09:56:39.753Z,99560.16
2022-09-28T09:59:16.161Z,99573.16
2022-09-28T10:02:22.061Z,99575.09
2022-09-28T10:05:20.145Z,99560.44
2022-09-28T10:07:57.453Z,99567.91
2022-09-28T10:10:36.957Z,99574.28
2022-09-28T10:13:10.311Z,99570.13
2022-09-28T10:15:39.105Z,99573.44
2022-09-28T10:18:30.132Z,99577.88
2022-09-28T10:21:17.802Z,99579.66
2022-09-28T10:24:47.660Z,99584.44
2022-09-28T10:27:35.140Z,99587.41
2022-09-28T10:30:24.535Z,99592.28
2022-09-28T10:32:55.615Z,99587.59
2022-09-28T10:35:25.952Z,99580.63
2022-09-28T10:38:07.483Z,99579.06
2022-09-28T10:41:11.219Z,99580.16
2022-09-28T10:44:06.842Z,99576.25
2022-09-28T10:46:44.348Z,99575.72
2022-09-28T10:49:18.381Z,99583.03
2022-09-28T10:51:56.732Z,99581.69
2022-09-28T10:54:29.854Z,99578.53
2022-09-28T10:56:59.501Z,99569.22
2022-09-28T10:59:39.338Z,99570.28
2022-09-28T11:02:37.970Z,99580.22
2022-09-28T11:05:22.975Z,99575.09
2022-09-28T11:07:55.568Z,99572.66
2022-09-28T11:10:30.198Z,99579.09
2022-09-28T11:13:04.579Z,99580.09
2022-09-28T11:15:33.394Z,99581.44
2022-09-28T11:18:20.189Z,99591.34
2022-09-28T11:20:49.397Z,99584.81
2022-09-28T11:23:26.888Z,99585.91
2022-09-28T11:26:02.789Z,99583.16
2022-09-28T11:28:36.059Z,99597.31
2022-09-28T11:31:08.958Z,99591.28
2022-09-28T11:34:01.154Z,99597.00
2022-09-28T11:37:13.770Z,99584.31
2022-09-28T11:39:50.927Z,99578.25
2022-09-28T11:42:41.497Z,99579.56
2022-09-28T11:45:27.872Z,99588.41
2022-09-28T11:48:01.084Z,99590.31
2022-09-28T11:50:36.075Z,99586.50
2022-09-28T11:53:31.103Z,99596.50
2022-09-28T11:56:31.439Z,99590.13
2022-09-28T11:59:27.907Z,99590.91
2022-09-28T12:02:13.686Z,99582.28
2022-09-28T12:05:28.448Z,99588.13
2022-09-28T12:08:02.494Z,99586.25
2022-09-28T12:11:17.351Z,99596.75
2022-09-28T12:14:27.734Z,99590.88
2022-09-28T12:17:19.843Z,99590.31
2022-09-28T12:20:04.112Z,99580.09
2022-09-28T12:22:38.429Z,99582.94
2022-09-28T12:25:06.864Z,99592.56
2022-09-28T12:27:49.437Z,99591.22
2022-09-28T12:30:21.525Z,99594.44
2022-09-28T12:33:04.572Z,99598.59
2022-09-28T12:35:45.128Z,99597.19
2022-09-28T12:38:34.539Z,99604.31
2022-09-28T12:41:13.746Z,99601.88
2022-09-28T12:43:54.538Z,99593.91
2022-09-28T12:46:37.064Z,99593.16
2022-09-28T12:52:45.889Z,99607.56
2022-09-28T12:55:50.124Z,99605.19
2022-09-28T12:59:00.122Z,99607.69
2022-09-28T13:01:40.205Z,99610.00
2022-09-28T13:04:13.501Z,99612.38
2022-09-28T13:06:49.702Z,99599.16
2022-09-28T13:09:24.995Z,99609.59
2022-09-28T13:12:04.270Z,99604.25
2022-09-28T13:14:43.780Z,99606.50
2022-09-28T13:17:20.663Z,99609.75
2022-09-28T13:19:59.267Z,99619.16
2022-09-28T13:22:44.422Z,99620.47
2022-09-28T13:25:18.595Z,99626.53
2022-09-28T13:27:48.642Z,99618.75
2022-09-28T13:30:17.657Z,99614.72
2022-09-28T13:32:47.701Z,99619.97
2022-09-28T13:35:16.156Z,99618.06
2022-09-28T13:37:43.708Z,99623.38
2022-09-28T13:40:11.560Z,99630.81
2022-09-28T13:42:42.570Z,99636.56
2022-09-28T13:45:25.185Z,99631.69
2022-09-28T13:48:13.069Z,99641.50
2022-09-28T13:51:15.504Z,99642.47
2022-09-28T13:54:01.356Z,99641.31
2022-09-28T13:56:31.886Z,99641.88
2022-09-28T13:59:29.993Z,99644.72
2022-09-28T14:02:07.201Z,99648.69
2022-09-28T14:04:54.287Z,99644.91
2022-09-28T14:07:34.441Z,99652.41
2022-09-28T14:10:21.158Z,99658.94
2022-09-28T14:12:51.483Z,99652.59
2022-09-28T14:15:31.484Z,99651.19
2022-09-28T14:18:14.421Z,99658.53
2022-09-28T14:20:47.942Z,99653.69
2022-09-28T14:23:29.852Z,99672.56
2022-09-28T14:26:15.052Z,99662.75
2022-09-28T14:28:49.244Z,99667.16
2022-09-28T14:31:25.560Z,99659.50
2022-09-28T14:33:58.353Z,99662.56
2022-09-28T14:36:56.548Z,99663.31
2022-09-28T14:39:48.682Z,99669.97
2022-09-28T14:42:18.410Z,99661.91
2022-09-28T14:45:06.773Z,99656.94
2022-09-28T14:47:38.028Z,99658.03
2022-09-28T14:50:38.056Z,99668.50
2022-09-28T14:53:06.650Z,99667.34
2022-09-28T14:55:51.188Z,99674.22
2022-09-28T14:58:27.645Z,99672.94
2022-09-28T15:01:06.601Z,99671.41
2022-09-28T15:03:34.558Z,99668.81
2022-09-28T15:06:02.085Z,99671.56
2022-09-28T15:08:38.721Z,99662.97
2022-09-28T15:11:06.814Z,99672.75
2022-09-28T15:13:34.309Z,99666.44
2022-09-28T15:16:11.626Z,99666.66
2022-09-28T15:19:04.632Z,99664.97
2022-09-28T15:21:39.056Z,99668.03
2022-09-28T15:24:28.977Z,99676.56
2022-09-28T15:26:56.915Z,99671.19
2022-09-28T15:29:27.296Z,99682.31
2022-09-28T15:31:54.942Z,99682.75
2022-09-28T15:34:48.752Z,99697.28
2022-09-28T15:37:19.102Z,99701.56
2022-09-28T15:39:48.341Z,99706.06
2022-09-28T15:42:17.161Z,99706.81
2022-09-28T15:45:26.815Z,99709.41
2022-09-28T15:48:17.887Z,99703.94
2022-09-28T15:51:03.933Z,99708.94
2022-09-28T15:53:31.658Z,99710.28
2022-09-28T15:56:01.319Z,99717.34
2022-09-28T15:58:29.179Z,99712.22
2022-09-28T16:01:25.419Z,99721.22
2022-09-28T16:03:52.969Z,99724.69
2022-09-28T16:06:20.763Z,99725.19
2022-09-28T16:08:49.175Z,99730.00
2022-09-28T16:11:28.006Z,99740.41
2022-09-28T16:14:06.210Z,99740.81
2022-09-28T16:16:42.149Z,99739.00
2022-09-28T16:19:21.138Z,99743.22
2022-09-28T16:21:48.762Z,99740.38
2022-09-28T16:24:21.370Z,99742.28
2022-09-28T16:26:49.417Z,99742.06
2022-09-28T16:29:40.324Z,99739.47
2022-09-28T16:32:26.680Z,99740.66
2022-09-28T16:35:11.005Z,99742.22
2022-09-28T16:37:42.834Z,99749.53
2022-09-28T16:40:10.510Z,99750.94
2022-09-28T16:42:45.522Z,99754.78
2022-09-28T16:45:20.662Z,99763.03
2022-09-28T16:47:53.079Z,99767.31
2022-09-28T16:50:21.335Z,99768.88
2022-09-28T16:53:31.690Z,99766.84
2022-09-28T16:55:59.910Z,99769.22
2022-09-28T16:58:28.979Z,99769.22
2022-09-28T17:00:56.734Z,99765.25
2022-09-28T17:03:24.671Z,99776.25
2022-09-28T17:05:52.883Z,99794.84
2022-09-28T17:08:22.429Z,99799.63
2022-09-28T17:13:41.110Z,99793.88
2022-09-28T17:16:13.593Z,99785.50
2022-09-28T17:18:41.367Z,99790.28
2022-09-28T17:21:27.044Z,99790.34
2022-09-28T17:23:54.859Z,99792.16
2022-09-28T17:26:31.716Z,99799.03
2022-09-28T17:28:59.744Z,99801.97
2022-09-28T17:31:27.928Z,99802.97
2022-09-28T17:33:55.485Z,99797.34
2022-09-28T17:36:23.304Z,99793.28
2022-09-28T17:39:06.596Z,99793.91
2022-09-28T17:41:34.871Z,99794.59
2022-09-28T17:44:03.187Z,99801.78
2022-09-28T17:46:41.776Z,99806.75
2022-09-28T17:49:10.381Z,99805.53
2022-09-28T17:51:38.145Z,99802.03
2022-09-28T17:54:08.259Z,99803.75
2022-09-28T17:56:36.300Z,99806.91
2022-09-28T17:59:05.661Z,99798.28
2022-09-28T18:01:34.843Z,99803.06
2022-09-28T18:04:03.807Z,99803.22
2022-09-28T18:06:33.835Z,99806.75
2022-09-28T18:09:03.234Z,99809.25
2022-09-28T18:11:31.679Z,99802.28
2022-09-28T18:13:59.161Z,99814.19
2022-09-28T18:16:28.950Z,99809.13
2022-09-28T18:18:57.601Z,99807.84
2022-09-28T18:21:25.778Z,99804.66
2022-09-28T18:23:53.687Z,99807.75
2022-09-28T18:26:21.330Z,99810.28
2022-09-28T18:28:49.285Z,99805.25
2022-09-28T18:31:19.266Z,99809.44
2022-09-28T18:36:35.985Z,99813.31
2022-09-28T18:39:03.694Z,99824.53
2022-09-28T18:41:31.304Z,99829.00
2022-09-28T18:44:01.679Z,99828.91
2022-09-28T18:46:29.765Z,99835.97
2022-09-28T18:48:57.609Z,99843.66
2022-09-28T18:51:25.506Z,99838.22
2022-09-28T18:53:55.083Z,99843.53
2022-09-28T18:56:22.619Z,99834.34
2022-09-28T18:58:51.758Z,99837.13
2022-09-28T19:01:35.470Z,99840.16
2022-09-28T19:04:05.194Z,99853.91
2022-09-28T19:06:34.399Z,99851.63
2022-09-28T19:09:02.622Z,99858.22
2022-09-28T19:11:30.317Z,99859.50
2022-09-28T19:13:57.877Z,99855.47
2022-09-28T19:16:29.608Z,99860.75
2022-09-28T19:18:57.799Z,99860.78
2022-09-28T19:21:25.607Z,99861.88
2022-09-28T19:23:55.535Z,99872.00
2022-09-28T19:26:25.034Z,99866.50
2022-09-28T19:28:52.804Z,99865.91
2022-09-28T19:31:20.340Z,99878.53
2022-09-28T19:33:48.280Z,99873.06
2022-09-28T19:36:18.452Z,99863.59
2022-09-28T19:38:46.972Z,99873.78
2022-09-28T19:41:42.829Z,99871.03
2022-09-28T19:44:25.727Z,99878.28
2022-09-28T19:47:07.603Z,99886.50
2022-09-28T19:49:38.427Z,99894.13
2022-09-28T19:52:16.122Z,99904.88
2022-09-28T19:54:57.885Z,99906.75
2022-09-28T19:57:30.290Z,99907.13
2022-09-28T20:00:01.971Z,99910.28
2022-09-28T20:02:34.014Z,99900.81
2022-09-28T20:05:01.673Z,99902.91
2022-09-28T20:07:32.966Z,99902.50
2022-09-28T20:10:01.181Z,99905.06
2022-09-28T20:12:30.994Z,99914.50
2022-09-28T20:14:58.627Z,99910.47
2022-09-28T20:17:27.772Z,99909.41
2022-09-28T20:19:55.351Z,99907.50
2022-09-28T20:22:22.922Z,99907.69
2022-09-28T20:24:50.476Z,99911.22
2022-09-28T20:27:18.046Z,99905.69
2022-09-28T20:29:45.543Z,99907.75
2022-09-28T20:32:13.693Z,99907.56
2022-09-28T20:34:41.317Z,99910.31
2022-09-28T20:37:09.945Z,99911.56
2022-09-28T20:39:40.444Z,99920.38
2022-09-28T20:42:11.692Z,99920.22
2022-09-28T20:44:40.077Z,99923.19
2022-09-28T20:47:07.616Z,99923.63
2022-09-28T20:49:35.279Z,99919.84
2022-09-28T20:52:02.912Z,99921.19
2022-09-28T20:54:31.170Z,99918.91
2022-09-28T20:56:59.031Z,99917.63
2022-09-28T20:59:27.856Z,99918.72
2022-09-28T21:01:56.041Z,99928.88
2022-09-28T21:04:24.333Z,99936.69
2022-09-28T21:06:52.274Z,99933.97
2022-09-28T21:09:19.823Z,99938.84
2022-09-28T21:11:48.231Z,99949.38
2022-09-28T21:14:16.019Z,99935.50
2022-09-28T21:16:45.065Z,99937.19
2022-09-28T21:19:12.654Z,99939.31
2022-09-28T21:21:40.953Z,99949.63
2022-09-28T21:24:08.481Z,99949.84
2022-09-28T21:26:37.094Z,99943.13
2022-09-28T21:29:11.124Z,99951.13
2022-09-28T21:31:45.817Z,99954.50
2022-09-28T21:34:14.552Z,99954.06
2022-09-28T21:36:43.533Z,99958.91
2022-09-28T21:39:11.470Z,99967.13
2022-09-28T21:41:39.409Z,99972.16
2022-09-28T21:44:08.619Z,99975.53
2022-09-28T21:46:36.948Z,99978.69
2022-09-28T21:49:06.490Z,99975.53
2022-09-28T21:51:35.306Z,99970.69
2022-09-28T21:54:02.856Z,99971.31
2022-09-28T21:56:33.496Z,99969.22
2022-09-28T21:59:01.470Z,99979.72
2022-09-28T22:01:29.541Z,99977.19
2022-09-28T22:03:57.333Z,99970.72
2022-09-28T22:06:28.119Z,99985.63
2022-09-28T22:08:56.957Z,99989.81
2022-09-28T22:11:26.377Z,99990.84
2022-09-28T22:13:58.442Z,99993.19
2022-09-28T22:16:28.560Z,99998.63
2022-09-28T22:18:57.021Z,99992.94
2022-09-28T22:21:26.388Z,100007.22
2022-09-28T22:23:53.930Z,100004.25
2022-09-28T22:26:41.396Z,100018.56
2022-09-28T22:29:09.345Z,100013.53
2022-09-28T22:31:39.154Z,100010.81
2022-09-28T22:34:08.326Z,100011.03
2022-09-28T22:36:36.730Z,100003.69
2022-09-28T22:39:04.684Z,100017.09
2022-09-28T22:41:32.511Z,100014.38
2022-09-28T22:44:00.253Z,100019.84
2022-09-28T22:46:28.846Z,100023.84
2022-09-28T22:48:57.630Z,100028.69
2022-09-28T22:51:26.391Z,100031.41
2022-09-28T22:53:53.981Z,100037.50
2022-09-28T22:56:21.497Z,100027.22
2022-09-28T22:58:49.225Z,100024.72
2022-09-28T23:01:18.729Z,100022.59
2022-09-28T23:03:46.566Z,100030.38
2022-09-28T23:06:17.094Z,100026.16
2022-09-28T23:08:45.488Z,100026.78
2022-09-28T23:11:13.159Z,100028.69
2022-09-28T23:13:43.451Z,100024.28
2022-09-28T23:16:11.912Z,100029.94
2022-09-28T23:18:42.264Z,100034.97
2022-09-28T23:21:15.684Z,100035.00
2022-09-28T23:23:44.025Z,100035.41
2022-09-28T23:26:19.053Z,100040.88
2022-09-28T23:28:47.089Z,100034.16
2022-09-28T23:31:18.874Z,100036.03
2022-09-28T23:33:46.700Z,100048.66
2022-09-28T23:36:14.910Z,100048.66
2022-09-28T23:38:42.826Z,100052.44
2022-09-28T23:41:10.593Z,100048.84
2022-09-28T23:43:38.439Z,100054.94
2022-09-28T23:46:06.250Z,100057.25
2022-09-28T23:48:34.080Z,100057.47
2022-09-28T23:51:01.753Z,100054.53
2022-09-28T23:53:29.770Z,100066.09
2022-09-28T23:55:57.249Z,100068.41
2022-09-28T23:58:25.843Z,100063.34
